createdAt,value
2022-08-23T00:00:34.135Z,6.50
2022-08-23T00:03:05.943Z,7.30
2022-08-23T00:05:39.511Z,6.57
2022-08-23T00:08:11.424Z,6.97
2022-08-23T00:10:43.155Z,6.37
2022-08-23T00:13:14.864Z,7.10
2022-08-23T00:15:46.711Z,6.60
2022-08-23T00:18:18.558Z,7.20
2022-08-23T00:20:51.037Z,5.70
2022-08-23T00:23:22.810Z,6.60
2022-08-23T00:25:54.506Z,7.13
2022-08-23T00:28:26.283Z,6.20
2022-08-23T00:30:58.734Z,6.27
2022-08-23T00:33:30.491Z,6.10
2022-08-23T00:36:02.339Z,6.20
2022-08-23T00:38:35.246Z,6.07
2022-08-23T00:41:07.031Z,6.50
2022-08-23T00:44:00.160Z,6.23
2022-08-23T00:46:58.800Z,6.53
2022-08-23T00:49:33.338Z,5.53
2022-08-23T00:52:14.180Z,5.80
2022-08-23T00:54:47.062Z,5.53
2022-08-23T00:57:19.663Z,6.33
2022-08-23T00:59:51.395Z,5.60
2022-08-23T01:02:23.294Z,5.87
2022-08-23T01:04:58.969Z,5.87
2022-08-23T01:07:33.716Z,5.73
2022-08-23T01:10:18.160Z,5.93
2022-08-23T01:13:14.875Z,6.00
2022-08-23T01:15:50.723Z,6.67
2022-08-23T01:18:26.155Z,5.60
2022-08-23T01:21:19.754Z,6.25
2022-08-23T01:23:57.793Z,7.13
2022-08-23T01:26:35.056Z,6.50
2022-08-23T01:29:08.012Z,6.20
2022-08-23T01:31:40.026Z,6.90
2022-08-23T01:34:16.253Z,6.20
2022-08-23T01:36:48.207Z,5.83
2022-08-23T01:39:20.008Z,5.60
2022-08-23T01:41:51.767Z,5.90
2022-08-23T01:44:23.706Z,7.20
2022-08-23T01:46:59.388Z,6.03
2022-08-23T01:49:31.139Z,5.72
2022-08-23T01:52:03.239Z,6.20
2022-08-23T01:54:35.072Z,6.50
2022-08-23T01:57:07.555Z,6.93
2022-08-23T01:59:39.377Z,6.10
2022-08-23T02:02:11.407Z,6.40
2022-08-23T02:04:43.117Z,5.80
2022-08-23T02:07:14.986Z,6.10
2022-08-23T02:09:46.827Z,5.93
2022-08-23T02:12:18.624Z,5.80
2022-08-23T02:14:50.494Z,6.07
2022-08-23T02:17:22.600Z,6.60
2022-08-23T02:19:55.383Z,5.60
2022-08-23T02:22:27.098Z,6.37
2022-08-23T02:24:59.010Z,6.50
2022-08-23T02:27:30.878Z,6.47
2022-08-23T02:30:04.082Z,6.30
2022-08-23T02:32:36.874Z,6.70
2022-08-23T02:35:09.208Z,6.60
2022-08-23T02:37:41.026Z,5.90
2022-08-23T02:40:12.930Z,6.30
2022-08-23T02:42:44.762Z,5.80
2022-08-23T02:45:17.258Z,5.93
2022-08-23T02:47:48.954Z,6.53
2022-08-23T02:50:21.431Z,6.30
2022-08-23T02:52:54.921Z,5.60
2022-08-23T02:55:27.185Z,6.30
2022-08-23T02:57:59.224Z,6.40
2022-08-23T03:00:31.482Z,5.60
2022-08-23T03:03:03.275Z,6.23
2022-08-23T03:05:35.110Z,6.30
2022-08-23T03:08:08.193Z,6.20
2022-08-23T03:10:48.304Z,5.70
2022-08-23T03:13:20.786Z,6.67
2022-08-23T03:15:52.559Z,5.83
2022-08-23T03:18:24.358Z,6.90
2022-08-23T03:20:56.080Z,7.20
2022-08-23T03:23:28.646Z,6.80
2022-08-23T03:26:02.836Z,6.87
2022-08-23T03:28:36.199Z,7.57
2022-08-23T03:31:09.753Z,6.57
2022-08-23T03:33:41.829Z,5.70
2022-08-23T03:36:13.824Z,6.87
2022-08-23T03:38:45.681Z,7.27
2022-08-23T03:41:17.726Z,6.07
2022-08-23T03:43:50.539Z,6.40
2022-08-23T03:46:25.555Z,6.73
2022-08-23T03:48:59.708Z,6.70
2022-08-23T03:51:34.354Z,6.00
2022-08-23T03:54:06.691Z,6.70
2022-08-23T03:56:49.339Z,7.60
2022-08-23T03:59:21.658Z,6.17
2022-08-23T04:01:53.857Z,6.60
2022-08-23T04:04:25.682Z,6.67
2022-08-23T04:06:57.426Z,6.67
2022-08-23T04:09:29.519Z,6.40
2022-08-23T04:12:01.351Z,6.20
2022-08-23T04:14:33.431Z,6.80
2022-08-23T04:17:05.660Z,6.43
2022-08-23T04:19:37.393Z,6.60
2022-08-23T04:22:15.088Z,5.53
2022-08-23T04:24:47.685Z,7.10
2022-08-23T04:27:19.458Z,7.27
2022-08-23T04:29:51.222Z,6.73
2022-08-23T04:32:28.186Z,6.27
2022-08-23T04:35:00.305Z,6.57
2022-08-23T04:37:32.155Z,6.47
2022-08-23T04:40:23.434Z,6.63
2022-08-23T04:42:55.287Z,6.60
2022-08-23T04:45:27.328Z,7.50
2022-08-23T04:47:59.250Z,7.17
2022-08-23T04:50:31.230Z,7.90
2022-08-23T04:53:04.181Z,7.67
2022-08-23T04:55:36.770Z,7.10
2022-08-23T04:58:10.267Z,6.37
2022-08-23T05:00:42.009Z,6.30
2022-08-23T05:03:13.878Z,7.57
2022-08-23T05:05:45.662Z,6.00
2022-08-23T05:08:18.198Z,6.80
2022-08-23T05:10:49.961Z,7.10
2022-08-23T05:13:22.036Z,7.10
2022-08-23T05:15:54.138Z,7.73
2022-08-23T05:18:27.087Z,7.20
2022-08-23T05:20:59.027Z,6.60
2022-08-23T05:23:32.082Z,7.77
2022-08-23T05:26:04.496Z,7.67
2022-08-23T05:28:38.550Z,7.27
2022-08-23T05:31:17.719Z,7.37
2022-08-23T05:33:50.488Z,6.30
2022-08-23T05:36:22.835Z,7.83
2022-08-23T05:38:54.640Z,6.90
2022-08-23T05:41:37.705Z,7.10
2022-08-23T05:44:10.519Z,8.23
2022-08-23T05:46:45.303Z,7.97
2022-08-23T05:49:19.022Z,7.90
2022-08-23T05:51:52.967Z,6.90
2022-08-23T05:54:24.873Z,6.93
2022-08-23T05:56:56.657Z,6.73
2022-08-23T05:59:29.006Z,7.13
2022-08-23T06:02:00.923Z,6.90
2022-08-23T06:04:33.118Z,6.83
2022-08-23T06:07:06.595Z,8.20
2022-08-23T06:09:38.363Z,7.60
2022-08-23T06:12:10.212Z,7.90
2022-08-23T06:14:41.942Z,7.20
2022-08-23T06:17:13.707Z,8.30
2022-08-23T06:19:45.398Z,7.43
2022-08-23T06:22:17.391Z,8.30
2022-08-23T06:24:49.449Z,7.40
2022-08-23T06:27:21.518Z,8.50
2022-08-23T06:29:53.406Z,8.57
2022-08-23T06:32:25.311Z,8.30
2022-08-23T06:35:29.937Z,8.73
2022-08-23T06:37:48.836Z,8.67
2022-08-23T06:40:20.703Z,9.00
2022-08-23T06:42:53.816Z,9.00
2022-08-23T06:45:32.383Z,8.53
2022-08-23T06:48:09.619Z,7.33
2022-08-23T06:50:41.667Z,8.30
2022-08-23T06:53:19.759Z,8.37
2022-08-23T06:55:52.140Z,8.20
2022-08-23T06:58:23.986Z,7.70
2022-08-23T07:00:57.648Z,8.80
2022-08-23T07:03:29.592Z,8.10
2022-08-23T07:06:08.372Z,7.03
2022-08-23T07:08:40.290Z,7.57
2022-08-23T07:11:12.236Z,7.17
2022-08-23T07:13:44.208Z,7.80
2022-08-23T07:16:18.267Z,8.43
2022-08-23T07:18:50.045Z,7.78
2022-08-23T07:21:21.834Z,7.10
2022-08-23T07:23:53.892Z,7.73
2022-08-23T07:26:25.842Z,7.37
2022-08-23T07:28:59.326Z,6.97
2022-08-23T07:31:33.435Z,7.00
2022-08-23T07:34:06.587Z,6.63
2022-08-23T07:36:42.101Z,5.93
2022-08-23T07:39:14.437Z,6.87
2022-08-23T07:41:46.956Z,7.03
2022-08-23T07:44:24.975Z,6.73
2022-08-23T07:46:59.263Z,6.70
2022-08-23T07:49:32.718Z,6.60
2022-08-23T07:52:04.810Z,6.87
2022-08-23T07:54:36.739Z,5.70
2022-08-23T07:57:08.544Z,6.43
2022-08-23T07:59:40.714Z,6.60
2022-08-23T08:02:12.609Z,5.70
2022-08-23T08:04:44.489Z,6.33
2022-08-23T08:07:21.110Z,6.37
2022-08-23T08:09:53.741Z,6.57
2022-08-23T08:12:29.144Z,5.50
2022-08-23T08:15:01.419Z,5.85
2022-08-23T08:17:33.661Z,6.43
2022-08-23T08:20:06.056Z,6.63
2022-08-23T08:22:37.923Z,6.93
2022-08-23T08:25:11.123Z,5.83
2022-08-23T08:27:43.058Z,5.70
2022-08-23T08:30:15.013Z,5.50
2022-08-23T08:32:47.572Z,6.40
2022-08-23T08:35:19.435Z,4.97
2022-08-23T08:37:51.409Z,5.67
2022-08-23T08:40:31.693Z,4.80
2022-08-23T08:43:34.139Z,5.43
2022-08-23T08:46:18.485Z,5.90
2022-08-23T08:48:55.372Z,6.03
2022-08-23T08:51:42.457Z,4.37
2022-08-23T08:54:18.374Z,5.10
2022-08-23T08:56:54.110Z,4.90
2022-08-23T08:59:51.940Z,4.63
2022-08-23T09:02:33.938Z,4.40
2022-08-23T09:05:34.300Z,5.60
2022-08-23T09:08:49.574Z,4.00
2022-08-23T09:11:40.604Z,4.70
2022-08-23T09:14:32.563Z,4.57
2022-08-23T09:17:26.618Z,3.73
2022-08-23T09:20:02.175Z,4.18
2022-08-23T09:22:45.914Z,3.63
2022-08-23T09:25:18.526Z,3.55
2022-08-23T09:27:50.274Z,3.42
2022-08-23T09:30:22.206Z,2.70
2022-08-23T09:32:55.966Z,4.35
2022-08-23T09:35:27.731Z,3.45
2022-08-23T09:38:04.378Z,3.17
2022-08-23T09:40:45.269Z,3.17
2022-08-23T09:43:22.029Z,2.80
2022-08-23T09:45:56.668Z,2.97
2022-08-23T09:48:41.528Z,3.20
2022-08-23T09:51:25.148Z,2.70
2022-08-23T09:54:11.514Z,3.13
2022-08-23T09:56:50.074Z,3.47
2022-08-23T09:59:27.332Z,3.25
2022-08-23T10:02:02.042Z,2.70
2022-08-23T10:04:37.191Z,3.13
2022-08-23T10:07:29.353Z,3.20
2022-08-23T10:10:24.543Z,3.60
2022-08-23T10:12:59.043Z,3.30
2022-08-23T10:15:40.548Z,3.22
2022-08-23T10:18:25.147Z,2.85
2022-08-23T10:21:10.819Z,3.03
2022-08-23T10:24:07.849Z,3.13
2022-08-23T10:26:46.162Z,3.42
2022-08-23T10:29:37.340Z,2.63
2022-08-23T10:32:18.191Z,3.00
2022-08-23T10:34:59.072Z,3.08
2022-08-23T10:37:49.230Z,3.42
2022-08-23T10:40:36.113Z,3.25
2022-08-23T10:43:32.003Z,3.17
2022-08-23T10:46:07.394Z,3.08
2022-08-23T10:49:00.322Z,3.40
2022-08-23T10:51:40.537Z,3.17
2022-08-23T10:54:34.550Z,4.03
2022-08-23T10:57:06.611Z,2.90
2022-08-23T10:59:38.979Z,3.30
2022-08-23T11:02:29.291Z,2.90
2022-08-23T11:05:03.992Z,3.67
2022-08-23T11:07:41.196Z,3.17
2022-08-23T11:10:17.566Z,3.40
2022-08-23T11:13:00.315Z,3.13
2022-08-23T11:15:47.266Z,2.88
2022-08-23T11:18:34.381Z,3.10
2022-08-23T11:21:08.328Z,3.45
2022-08-23T11:24:15.567Z,3.17
2022-08-23T11:26:47.250Z,3.00
2022-08-23T11:29:24.688Z,3.40
2022-08-23T11:32:15.464Z,3.22
2022-08-23T11:35:05.275Z,3.30
2022-08-23T11:38:03.936Z,3.40
2022-08-23T11:40:40.724Z,3.13
2022-08-23T11:43:32.081Z,3.38
2022-08-23T11:46:27.423Z,3.38
2022-08-23T11:49:21.976Z,3.30
2022-08-23T11:52:18.625Z,3.33
2022-08-23T11:55:09.214Z,3.30
2022-08-23T11:57:55.983Z,3.35
2022-08-23T12:00:52.437Z,3.95
2022-08-23T12:03:33.875Z,3.35
2022-08-23T12:06:29.768Z,3.80
2022-08-23T12:09:24.018Z,3.70
2022-08-23T12:11:55.796Z,3.20
2022-08-23T12:14:50.325Z,3.38
2022-08-23T12:17:28.661Z,4.13
2022-08-23T12:20:16.514Z,3.37
2022-08-23T12:22:59.836Z,3.50
2022-08-23T12:25:32.210Z,3.85
2022-08-23T12:28:29.882Z,4.07
2022-08-23T12:31:19.823Z,3.83
2022-08-23T12:34:05.593Z,3.50
2022-08-23T12:37:09.447Z,3.73
2022-08-23T12:39:51.358Z,3.40
2022-08-23T12:42:33.711Z,4.07
2022-08-23T12:45:20.045Z,3.20
2022-08-23T12:48:02.636Z,3.30
2022-08-23T12:50:40.985Z,3.25
2022-08-23T12:53:25.699Z,3.83
2022-08-23T12:56:11.122Z,3.60
2022-08-23T12:58:52.180Z,3.57
2022-08-23T13:01:33.913Z,3.80
2022-08-23T13:04:13.195Z,3.93
2022-08-23T13:06:50.603Z,3.60
2022-08-23T13:09:38.564Z,3.63
2022-08-23T13:12:11.121Z,3.67
2022-08-23T13:14:51.508Z,3.27
2022-08-23T13:17:26.292Z,3.50
2022-08-23T13:20:06.904Z,3.75
2022-08-23T13:22:54.271Z,3.53
2022-08-23T13:25:34.761Z,3.70
2022-08-23T13:28:21.727Z,3.70
2022-08-23T13:31:19.720Z,3.80
2022-08-23T13:33:54.353Z,3.70
2022-08-23T13:36:26.146Z,3.57
2022-08-23T13:39:05.507Z,3.87
2022-08-23T13:41:38.547Z,3.60
2022-08-23T13:44:12.080Z,4.30
2022-08-23T13:46:48.199Z,3.83
2022-08-23T13:49:22.114Z,4.40
2022-08-23T13:52:11.961Z,3.83
2022-08-23T13:54:53.067Z,3.80
2022-08-23T13:57:29.578Z,3.50
2022-08-23T14:00:02.364Z,3.90
2022-08-23T14:02:34.196Z,4.13
2022-08-23T14:05:09.612Z,3.80
2022-08-23T14:07:41.434Z,4.57
2022-08-23T14:10:14.374Z,3.80
2022-08-23T14:12:47.452Z,4.07
2022-08-23T14:15:19.898Z,3.70
2022-08-23T14:17:53.958Z,4.40
2022-08-23T14:20:43.463Z,4.07
2022-08-23T14:23:15.703Z,4.10
2022-08-23T14:25:51.148Z,4.50
2022-08-23T14:28:26.415Z,4.27
2022-08-23T14:31:02.609Z,4.10
2022-08-23T14:33:34.514Z,4.33
2022-08-23T14:36:07.065Z,4.10
2022-08-23T14:38:39.577Z,3.90
2022-08-23T14:41:16.959Z,4.70
2022-08-23T14:43:50.412Z,4.20
2022-08-23T14:46:23.429Z,3.60
2022-08-23T14:48:55.241Z,4.00
2022-08-23T14:51:26.982Z,4.20
2022-08-23T14:54:00.126Z,4.17
2022-08-23T14:56:32.931Z,4.30
2022-08-23T14:59:04.795Z,4.50
2022-08-23T15:01:37.774Z,4.30
2022-08-23T15:04:09.717Z,4.80
2022-08-23T15:07:00.378Z,3.87
2022-08-23T15:09:34.274Z,4.50
2022-08-23T15:12:58.507Z,3.83
2022-08-23T15:14:58.463Z,4.30
2022-08-23T15:17:31.708Z,4.70
2022-08-23T15:20:04.886Z,4.13
2022-08-23T15:22:44.478Z,4.53
2022-08-23T15:25:17.910Z,4.63
2022-08-23T15:27:51.016Z,4.40
2022-08-23T15:30:23.967Z,4.30
2022-08-23T15:32:56.540Z,5.00
2022-08-23T15:35:39.843Z,4.93
2022-08-23T15:38:14.823Z,4.40
2022-08-23T15:40:46.547Z,4.90
2022-08-23T15:43:19.418Z,4.20
2022-08-23T15:45:51.454Z,4.30
2022-08-23T15:48:32.167Z,4.00
2022-08-23T15:51:06.022Z,4.23
2022-08-23T15:53:39.605Z,4.43
2022-08-23T15:56:16.275Z,4.43
2022-08-23T15:58:48.907Z,4.70
2022-08-23T16:01:24.680Z,4.50
2022-08-23T16:03:56.598Z,4.20
2022-08-23T16:06:32.133Z,4.00
2022-08-23T16:09:11.735Z,4.77
2022-08-23T16:11:46.336Z,5.10
2022-08-23T16:14:18.456Z,5.50
2022-08-23T16:16:50.329Z,5.60
2022-08-23T16:19:22.110Z,4.97
2022-08-23T16:21:54.225Z,5.20
2022-08-23T16:24:27.765Z,5.40
2022-08-23T16:26:59.587Z,4.77
2022-08-23T16:29:34.643Z,5.57
2022-08-23T16:32:07.494Z,5.18
2022-08-23T16:34:39.388Z,5.00
2022-08-23T16:37:11.395Z,4.77
2022-08-23T16:39:44.969Z,4.87
2022-08-23T16:42:18.111Z,5.13
2022-08-23T16:44:50.057Z,5.53
2022-08-23T16:47:22.420Z,4.60
2022-08-23T16:49:56.054Z,5.60
2022-08-23T16:52:34.368Z,4.87
2022-08-23T16:55:09.769Z,5.20
2022-08-23T16:57:41.831Z,5.50
2022-08-23T17:00:14.793Z,4.00
2022-08-23T17:02:47.064Z,6.00
2022-08-23T17:05:19.647Z,5.03
2022-08-23T17:07:54.077Z,5.37
2022-08-23T17:10:26.127Z,4.63
2022-08-23T17:12:58.130Z,4.80
2022-08-23T17:15:33.908Z,5.57
2022-08-23T17:18:06.294Z,5.67
2022-08-23T17:20:39.302Z,5.10
2022-08-23T17:23:11.475Z,5.40
2022-08-23T17:25:47.637Z,5.20
2022-08-23T17:28:19.508Z,4.72
2022-08-23T17:30:51.307Z,4.60
2022-08-23T17:33:23.181Z,4.77
2022-08-23T17:35:54.949Z,4.60
2022-08-23T17:38:26.707Z,4.63
2022-08-23T17:40:59.000Z,5.90
2022-08-23T17:43:30.759Z,7.40
2022-08-23T17:46:02.599Z,5.80
2022-08-23T17:48:34.487Z,5.10
2022-08-23T17:51:06.313Z,6.17
2022-08-23T17:53:38.178Z,6.13
2022-08-23T17:56:12.416Z,5.70
2022-08-23T17:58:44.359Z,5.10
2022-08-23T18:01:16.349Z,4.93
2022-08-23T18:03:49.176Z,6.40
2022-08-23T18:06:22.012Z,9.23
2022-08-23T18:08:55.298Z,7.80
2022-08-23T18:11:27.150Z,6.60
2022-08-23T18:13:59.190Z,6.00
2022-08-23T18:16:35.285Z,5.83
2022-08-23T18:19:11.139Z,5.10
2022-08-23T18:21:44.814Z,5.63
2022-08-23T18:24:17.799Z,5.40
2022-08-23T18:27:08.399Z,5.10
2022-08-23T18:29:40.216Z,8.50
2022-08-23T18:32:14.694Z,10.20
2022-08-23T18:34:46.579Z,5.20
2022-08-23T18:37:21.583Z,5.60
2022-08-23T18:39:53.551Z,5.40
2022-08-23T18:42:26.103Z,4.97
2022-08-23T18:44:57.847Z,5.07
2022-08-23T18:47:30.226Z,5.53
2022-08-23T18:50:02.218Z,5.53
2022-08-23T18:52:34.162Z,5.30
2022-08-23T18:55:06.681Z,6.00
2022-08-23T18:57:39.014Z,5.40
2022-08-23T19:00:11.387Z,5.70
2022-08-23T19:02:43.154Z,5.67
2022-08-23T19:05:15.146Z,5.90
2022-08-23T19:07:47.035Z,6.23
2022-08-23T19:10:20.626Z,5.67
2022-08-23T19:12:54.500Z,7.07
2022-08-23T19:15:29.354Z,5.00
2022-08-23T19:18:01.962Z,6.40
2022-08-23T19:20:33.802Z,5.97
2022-08-23T19:23:05.642Z,5.27
2022-08-23T19:25:38.576Z,5.70
2022-08-23T19:28:10.968Z,5.73
2022-08-23T19:30:43.987Z,5.57
2022-08-23T19:33:16.461Z,5.77
2022-08-23T19:35:48.749Z,5.97
2022-08-23T19:38:22.920Z,5.13
2022-08-23T19:40:57.912Z,5.13
2022-08-23T19:43:29.761Z,5.37
2022-08-23T19:46:14.028Z,5.90
2022-08-23T19:48:47.418Z,5.73
2022-08-23T19:51:20.523Z,5.20
2022-08-23T19:54:04.696Z,5.67
2022-08-23T19:56:43.555Z,4.80
2022-08-23T19:59:22.854Z,5.80
2022-08-23T20:01:55.605Z,4.97
2022-08-23T20:04:29.701Z,5.93
2022-08-23T20:07:03.496Z,5.73
2022-08-23T20:09:35.712Z,5.23
2022-08-23T20:12:07.843Z,5.07
2022-08-23T20:14:39.584Z,6.10
2022-08-23T20:17:11.518Z,7.00
2022-08-23T20:19:43.507Z,7.40
2022-08-23T20:22:34.079Z,6.40
2022-08-23T20:25:07.585Z,6.40
2022-08-23T20:27:39.368Z,6.50
2022-08-23T20:30:13.066Z,5.67
2022-08-23T20:32:44.802Z,5.30
2022-08-23T20:35:16.530Z,5.90
2022-08-23T20:37:48.455Z,5.83
2022-08-23T20:40:21.693Z,5.60
2022-08-23T20:42:53.679Z,5.47
2022-08-23T20:45:25.527Z,7.03
2022-08-23T20:47:57.424Z,7.10
2022-08-23T20:50:29.372Z,6.63
2022-08-23T20:53:01.372Z,5.80
2022-08-23T20:55:33.394Z,6.10
2022-08-23T20:58:05.535Z,6.80
2022-08-23T21:00:37.314Z,6.50
2022-08-23T21:03:09.374Z,5.93
2022-08-23T21:05:41.162Z,6.57
2022-08-23T21:08:15.021Z,7.17
2022-08-23T21:10:46.791Z,7.28
2022-08-23T21:13:19.370Z,6.30
2022-08-23T21:15:51.303Z,6.67
2022-08-23T21:18:23.127Z,6.77
2022-08-23T21:20:54.927Z,6.87
2022-08-23T21:23:27.207Z,6.73
2022-08-23T21:25:59.163Z,7.30
2022-08-23T21:28:30.948Z,7.50
2022-08-23T21:31:07.588Z,6.60
2022-08-23T21:33:40.563Z,7.13
2022-08-23T21:36:13.864Z,6.95
2022-08-23T21:38:46.163Z,7.30
2022-08-23T21:41:37.590Z,7.20
2022-08-23T21:44:17.870Z,7.10
2022-08-23T21:46:49.692Z,6.63
2022-08-23T21:49:21.568Z,6.53
2022-08-23T21:51:54.336Z,6.77
2022-08-23T21:54:26.209Z,7.20
2022-08-23T21:56:58.052Z,6.57
2022-08-23T21:59:29.853Z,7.10
2022-08-23T22:02:01.814Z,6.37
2022-08-23T22:04:33.655Z,6.33
2022-08-23T22:07:05.444Z,6.50
2022-08-23T22:09:37.239Z,6.30
2022-08-23T22:12:09.578Z,6.13
2022-08-23T22:14:41.350Z,7.07
2022-08-23T22:17:15.063Z,6.63
2022-08-23T22:19:46.823Z,6.73
2022-08-23T22:22:18.955Z,6.07
2022-08-23T22:24:51.187Z,6.13
2022-08-23T22:27:22.983Z,6.43
2022-08-23T22:29:55.398Z,6.00
2022-08-23T22:32:27.163Z,6.10
2022-08-23T22:34:58.996Z,5.90
2022-08-23T22:37:30.826Z,6.77
2022-08-23T22:40:03.522Z,5.93
2022-08-23T22:42:35.972Z,6.07
2022-08-23T22:45:08.814Z,5.97
2022-08-23T22:47:40.652Z,6.40
2022-08-23T22:50:12.671Z,7.60
2022-08-23T22:52:44.460Z,5.40
2022-08-23T22:55:16.299Z,6.30
2022-08-23T22:57:48.120Z,6.30
2022-08-23T23:00:20.057Z,6.77
2022-08-23T23:02:52.807Z,6.40
2022-08-23T23:05:24.607Z,7.17
2022-08-23T23:08:14.715Z,5.80
2022-08-23T23:10:46.498Z,6.30
2022-08-23T23:13:18.281Z,6.53
2022-08-23T23:15:50.980Z,6.30
2022-08-23T23:18:24.155Z,6.90
2022-08-23T23:21:00.996Z,7.47
2022-08-23T23:23:34.933Z,6.93
2022-08-23T23:26:08.505Z,6.70
2022-08-23T23:28:41.500Z,7.70
2022-08-23T23:31:13.396Z,6.83
2022-08-23T23:33:45.385Z,7.27
2022-08-23T23:36:17.570Z,6.93
2022-08-23T23:38:49.483Z,7.40
2022-08-23T23:41:21.268Z,6.87
2022-08-23T23:43:53.004Z,6.70
2022-08-23T23:46:25.457Z,6.80
2022-08-23T23:48:57.247Z,7.13
2022-08-23T23:51:30.556Z,6.97
2022-08-23T23:54:02.698Z,6.72
2022-08-23T23:56:39.091Z,6.73
2022-08-23T23:59:10.880Z,7.33
